CheckWX is a tool to help pilots better visualize weather data.  It is not intended as a substitute for an official pre-flight weather briefing.

07:50:09 UTC

FAEL METAR
Ben Schoeman Airport
East London, South Africa
Current

50 mins ago

FAEL 260700Z 23019KT 9999 FEW021 24/19 Q1008
Observed
Jan-26 @ 07:00 UTC
Wind
  • 230° at 19 KTS
Visibility
10,000+ meters
Flight Rules
VFR
Cloud Levels
  • Few at 2,100' AGL
Temperature
24°C / 75°F
Dewpoint
19°C / 66°F
Humidity
74%
Altimeter
29.76" Hg
Pressure
1007.92 hPa
Previous

2 hours ago

FAEL 260600Z 25015KT 9999 FEW037 23/19 Q1008
Observed
Jan-26 @ 06:00 UTC
Wind
  • 250° at 15 KTS
Visibility
10,000+ meters
Flight Rules
VFR
Cloud Levels
  • Few at 3,700' AGL
Temperature
23°C / 73°F
Dewpoint
19°C / 66°F
Humidity
78%
Altimeter
29.76" Hg
Pressure
1007.92 hPa
Previous

3 hours ago

FAEL 260500Z 25012KT 9999 FEW034 22/19 Q1007
Observed
Jan-26 @ 05:00 UTC
Wind
  • 250° at 12 KTS
Visibility
10,000+ meters
Flight Rules
VFR
Cloud Levels
  • Few at 3,400' AGL
Temperature
22°C / 72°F
Dewpoint
19°C / 66°F
Humidity
83%
Altimeter
29.73" Hg
Pressure
1006.92 hPa